sensor_id;sensor_type;location;lat;lon;timestamp;temperature;humidity
54168;DHT22;68429;50.958;3.592;2023-07-20T00:01:58;16.70;99.90
54168;DHT22;68429;50.958;3.592;2023-07-20T00:04:24;16.70;99.90
54168;DHT22;68429;50.958;3.592;2023-07-20T00:06:49;16.60;99.90
54168;DHT22;68429;50.958;3.592;2023-07-20T00:09:15;16.50;99.90
54168;DHT22;68429;50.958;3.592;2023-07-20T00:11:48;16.40;99.90
54168;DHT22;68429;50.958;3.592;2023-07-20T00:14:16;16.30;99.90
54168;DHT22;68429;50.958;3.592;2023-07-20T00:16:42;16.30;99.90
54168;DHT22;68429;50.958;3.592;2023-07-20T00:19:07;16.20;99.90
54168;DHT22;68429;50.958;3.592;2023-07-20T00:21:33;16.30;99.90
54168;DHT22;68429;50.958;3.592;2023-07-20T00:23:59;16.20;99.90
54168;DHT22;68429;50.958;3.592;2023-07-20T00:26:24;16.20;99.90
54168;DHT22;68429;50.958;3.592;2023-07-20T00:28:50;16.10;99.90
54168;DHT22;68429;50.958;3.592;2023-07-20T00:31:19;16.10;99.90
54168;DHT22;68429;50.958;3.592;2023-07-20T00:33:44;16.10;99.90
54168;DHT22;68429;50.958;3.592;2023-07-20T00:36:10;16.10;99.90
54168;DHT22;68429;50.958;3.592;2023-07-20T00:38:36;16.10;99.90
54168;DHT22;68429;50.958;3.592;2023-07-20T00:41:01;16.20;99.90
54168;DHT22;68429;50.958;3.592;2023-07-20T00:43:27;16.20;99.90
54168;DHT22;68429;50.958;3.592;2023-07-20T00:45:53;16.20;99.90
54168;DHT22;68429;50.958;3.592;2023-07-20T00:48:19;16.10;99.90
54168;DHT22;68429;50.958;3.592;2023-07-20T00:50:45;16.10;99.90
54168;DHT22;68429;50.958;3.592;2023-07-20T00:53:11;16.00;99.90
54168;DHT22;68429;50.958;3.592;2023-07-20T00:55:37;16.00;99.90
54168;DHT22;68429;50.958;3.592;2023-07-20T00:58:03;15.90;99.90
54168;DHT22;68429;50.958;3.592;2023-07-20T01:00:30;15.90;99.90
54168;DHT22;68429;50.958;3.592;2023-07-20T01:02:56;15.90;99.90
54168;DHT22;68429;50.958;3.592;2023-07-20T01:05:25;15.90;99.90
54168;DHT22;68429;50.958;3.592;2023-07-20T01:07:58;16.10;99.90
54168;DHT22;68429;50.958;3.592;2023-07-20T01:10:36;16.10;99.90
54168;DHT22;68429;50.958;3.592;2023-07-20T01:13:06;16.20;99.90
54168;DHT22;68429;50.958;3.592;2023-07-20T01:15:35;16.20;99.90
54168;DHT22;68429;50.958;3.592;2023-07-20T01:18:00;16.20;99.90
54168;DHT22;68429;50.958;3.592;2023-07-20T01:20:32;16.20;99.90
54168;DHT22;68429;50.958;3.592;2023-07-20T01:26:20;16.20;99.90
54168;DHT22;68429;50.958;3.592;2023-07-20T01:31:28;16.10;99.90
54168;DHT22;68429;50.958;3.592;2023-07-20T01:33:58;15.90;99.90
54168;DHT22;68429;50.958;3.592;2023-07-20T01:36:28;15.90;99.90
54168;DHT22;68429;50.958;3.592;2023-07-20T01:38:54;15.90;99.90
54168;DHT22;68429;50.958;3.592;2023-07-20T01:41:21;15.80;99.90
54168;DHT22;68429;50.958;3.592;2023-07-20T01:43:47;15.80;99.90
54168;DHT22;68429;50.958;3.592;2023-07-20T01:46:13;15.80;99.90
54168;DHT22;68429;50.958;3.592;2023-07-20T01:48:39;15.70;99.90
54168;DHT22;68429;50.958;3.592;2023-07-20T01:51:05;15.70;99.90
54168;DHT22;68429;50.958;3.592;2023-07-20T01:53:30;15.60;99.90
54168;DHT22;68429;50.958;3.592;2023-07-20T01:55:57;15.60;99.90
54168;DHT22;68429;50.958;3.592;2023-07-20T01:58:23;15.50;99.90
54168;DHT22;68429;50.958;3.592;2023-07-20T02:00:48;15.40;99.90
54168;DHT22;68429;50.958;3.592;2023-07-20T02:03:14;15.30;99.90
54168;DHT22;68429;50.958;3.592;2023-07-20T02:05:42;15.30;99.90
54168;DHT22;68429;50.958;3.592;2023-07-20T02:08:08;15.20;99.90
54168;DHT22;68429;50.958;3.592;2023-07-20T02:10:35;15.20;99.90
54168;DHT22;68429;50.958;3.592;2023-07-20T02:13:00;15.20;99.90
54168;DHT22;68429;50.958;3.592;2023-07-20T02:15:26;15.20;99.90
54168;DHT22;68429;50.958;3.592;2023-07-20T02:17:53;15.20;99.90
54168;DHT22;68429;50.958;3.592;2023-07-20T02:20:18;15.30;99.90
54168;DHT22;68429;50.958;3.592;2023-07-20T02:22:45;15.40;99.90
54168;DHT22;68429;50.958;3.592;2023-07-20T02:25:11;15.50;99.90
54168;DHT22;68429;50.958;3.592;2023-07-20T02:27:37;15.70;99.90
54168;DHT22;68429;50.958;3.592;2023-07-20T02:30:04;15.70;99.90
54168;DHT22;68429;50.958;3.592;2023-07-20T02:32:30;15.70;99.90
54168;DHT22;68429;50.958;3.592;2023-07-20T02:34:57;15.70;99.90
54168;DHT22;68429;50.958;3.592;2023-07-20T02:37:23;15.70;99.90
54168;DHT22;68429;50.958;3.592;2023-07-20T02:39:48;15.70;99.90
54168;DHT22;68429;50.958;3.592;2023-07-20T02:42:14;15.80;99.90
54168;DHT22;68429;50.958;3.592;2023-07-20T02:44:40;15.90;99.90
54168;DHT22;68429;50.958;3.592;2023-07-20T02:47:06;16.00;99.90
54168;DHT22;68429;50.958;3.592;2023-07-20T02:49:31;15.90;99.90
54168;DHT22;68429;50.958;3.592;2023-07-20T02:51:57;15.90;99.90
54168;DHT22;68429;50.958;3.592;2023-07-20T02:54:23;15.80;99.90
54168;DHT22;68429;50.958;3.592;2023-07-20T02:56:49;15.90;99.90
54168;DHT22;68429;50.958;3.592;2023-07-20T02:59:15;15.80;99.90
54168;DHT22;68429;50.958;3.592;2023-07-20T03:01:40;15.90;99.90
54168;DHT22;68429;50.958;3.592;2023-07-20T03:04:08;15.90;99.90
54168;DHT22;68429;50.958;3.592;2023-07-20T03:06:35;15.80;99.90
54168;DHT22;68429;50.958;3.592;2023-07-20T03:09:02;15.90;99.90
54168;DHT22;68429;50.958;3.592;2023-07-20T03:11:27;15.80;99.90
54168;DHT22;68429;50.958;3.592;2023-07-20T03:13:53;15.80;99.90
54168;DHT22;68429;50.958;3.592;2023-07-20T03:16:19;15.80;99.90
54168;DHT22;68429;50.958;3.592;2023-07-20T03:18:45;15.90;99.90
54168;DHT22;68429;50.958;3.592;2023-07-20T03:21:11;15.90;99.90
54168;DHT22;68429;50.958;3.592;2023-07-20T03:23:40;15.90;99.90
54168;DHT22;68429;50.958;3.592;2023-07-20T03:26:06;15.90;99.90
54168;DHT22;68429;50.958;3.592;2023-07-20T03:28:38;16.00;99.90
54168;DHT22;68429;50.958;3.592;2023-07-20T03:31:04;15.90;99.90
54168;DHT22;68429;50.958;3.592;2023-07-20T03:33:30;15.90;99.90
54168;DHT22;68429;50.958;3.592;2023-07-20T03:35:57;15.90;99.90
54168;DHT22;68429;50.958;3.592;2023-07-20T03:38:23;15.90;99.90
54168;DHT22;68429;50.958;3.592;2023-07-20T03:40:57;16.00;99.90
54168;DHT22;68429;50.958;3.592;2023-07-20T03:43:24;16.00;99.90
54168;DHT22;68429;50.958;3.592;2023-07-20T03:45:50;16.00;99.90
54168;DHT22;68429;50.958;3.592;2023-07-20T03:48:18;16.00;99.90
54168;DHT22;68429;50.958;3.592;2023-07-20T03:50:45;16.00;99.90
54168;DHT22;68429;50.958;3.592;2023-07-20T03:53:11;15.90;99.90
54168;DHT22;68429;50.958;3.592;2023-07-20T03:55:37;15.90;99.90
54168;DHT22;68429;50.958;3.592;2023-07-20T03:58:03;15.90;99.90
54168;DHT22;68429;50.958;3.592;2023-07-20T04:00:29;15.90;99.90
54168;DHT22;68429;50.958;3.592;2023-07-20T04:02:54;15.90;99.90
54168;DHT22;68429;50.958;3.592;2023-07-20T04:05:20;15.90;99.90
54168;DHT22;68429;50.958;3.592;2023-07-20T04:07:46;15.90;99.90
54168;DHT22;68429;50.958;3.592;2023-07-20T04:10:12;16.00;99.90
54168;DHT22;68429;50.958;3.592;2023-07-20T04:12:38;16.00;99.90
54168;DHT22;68429;50.958;3.592;2023-07-20T04:15:04;16.00;99.90
54168;DHT22;68429;50.958;3.592;2023-07-20T04:17:30;16.00;99.90
54168;DHT22;68429;50.958;3.592;2023-07-20T04:19:55;16.10;99.90
54168;DHT22;68429;50.958;3.592;2023-07-20T04:22:21;16.10;99.90
54168;DHT22;68429;50.958;3.592;2023-07-20T04:24:47;16.20;99.90
54168;DHT22;68429;50.958;3.592;2023-07-20T04:27:13;16.00;99.90
54168;DHT22;68429;50.958;3.592;2023-07-20T04:29:38;16.00;99.90
54168;DHT22;68429;50.958;3.592;2023-07-20T04:32:04;16.00;99.90
54168;DHT22;68429;50.958;3.592;2023-07-20T04:34:30;16.10;99.90
54168;DHT22;68429;50.958;3.592;2023-07-20T04:36:56;16.00;99.90
54168;DHT22;68429;50.958;3.592;2023-07-20T04:39:21;16.00;99.90
54168;DHT22;68429;50.958;3.592;2023-07-20T04:41:47;16.00;99.90
54168;DHT22;68429;50.958;3.592;2023-07-20T04:44:13;16.00;99.90
54168;DHT22;68429;50.958;3.592;2023-07-20T04:46:39;15.80;99.90
54168;DHT22;68429;50.958;3.592;2023-07-20T04:49:06;15.90;99.90
54168;DHT22;68429;50.958;3.592;2023-07-20T04:51:31;15.90;99.90
54168;DHT22;68429;50.958;3.592;2023-07-20T04:53:57;16.00;99.90
54168;DHT22;68429;50.958;3.592;2023-07-20T04:56:24;16.10;99.90
54168;DHT22;68429;50.958;3.592;2023-07-20T04:58:50;16.10;99.90
54168;DHT22;68429;50.958;3.592;2023-07-20T05:01:16;16.10;99.90
54168;DHT22;68429;50.958;3.592;2023-07-20T05:03:41;16.20;99.90
54168;DHT22;68429;50.958;3.592;2023-07-20T05:06:07;16.30;99.90
54168;DHT22;68429;50.958;3.592;2023-07-20T05:08:33;16.30;99.90
54168;DHT22;68429;50.958;3.592;2023-07-20T05:10:59;16.40;99.90
54168;DHT22;68429;50.958;3.592;2023-07-20T05:13:25;16.50;99.90
54168;DHT22;68429;50.958;3.592;2023-07-20T05:15:52;16.50;99.90
54168;DHT22;68429;50.958;3.592;2023-07-20T05:18:18;16.60;99.90
54168;DHT22;68429;50.958;3.592;2023-07-20T05:20:48;16.90;99.90
54168;DHT22;68429;50.958;3.592;2023-07-20T05:23:17;17.00;99.90
54168;DHT22;68429;50.958;3.592;2023-07-20T05:25:43;17.00;99.90
54168;DHT22;68429;50.958;3.592;2023-07-20T05:28:09;17.00;99.90
54168;DHT22;68429;50.958;3.592;2023-07-20T05:30:35;17.10;99.90
54168;DHT22;68429;50.958;3.592;2023-07-20T05:33:00;17.20;99.90
54168;DHT22;68429;50.958;3.592;2023-07-20T05:35:26;17.20;99.90
54168;DHT22;68429;50.958;3.592;2023-07-20T05:37:52;17.30;99.90
54168;DHT22;68429;50.958;3.592;2023-07-20T05:40:18;17.30;99.90
54168;DHT22;68429;50.958;3.592;2023-07-20T05:42:48;17.20;99.90
54168;DHT22;68429;50.958;3.592;2023-07-20T05:45:17;17.20;99.90
54168;DHT22;68429;50.958;3.592;2023-07-20T05:47:43;17.30;99.90
54168;DHT22;68429;50.958;3.592;2023-07-20T05:50:10;17.50;99.90
54168;DHT22;68429;50.958;3.592;2023-07-20T05:52:36;17.60;99.90
54168;DHT22;68429;50.958;3.592;2023-07-20T05:55:03;17.70;99.90
54168;DHT22;68429;50.958;3.592;2023-07-20T05:57:29;17.70;99.90
54168;DHT22;68429;50.958;3.592;2023-07-20T05:59:55;17.60;99.90
54168;DHT22;68429;50.958;3.592;2023-07-20T06:02:20;17.70;99.90
54168;DHT22;68429;50.958;3.592;2023-07-20T06:04:46;17.80;99.90
54168;DHT22;68429;50.958;3.592;2023-07-20T06:07:12;17.70;99.90
54168;DHT22;68429;50.958;3.592;2023-07-20T06:09:38;17.80;99.90
54168;DHT22;68429;50.958;3.592;2023-07-20T06:12:04;17.90;99.90
54168;DHT22;68429;50.958;3.592;2023-07-20T06:14:29;17.80;99.90
54168;DHT22;68429;50.958;3.592;2023-07-20T06:16:55;17.80;99.90
54168;DHT22;68429;50.958;3.592;2023-07-20T06:19:21;18.00;99.90
54168;DHT22;68429;50.958;3.592;2023-07-20T06:21:48;18.30;99.90
54168;DHT22;68429;50.958;3.592;2023-07-20T06:24:15;18.40;99.90
54168;DHT22;68429;50.958;3.592;2023-07-20T06:26:41;18.30;99.90
54168;DHT22;68429;50.958;3.592;2023-07-20T06:29:07;18.40;99.90
54168;DHT22;68429;50.958;3.592;2023-07-20T06:31:33;18.40;99.90
54168;DHT22;68429;50.958;3.592;2023-07-20T06:33:59;18.60;99.90
54168;DHT22;68429;50.958;3.592;2023-07-20T06:36:25;18.60;99.90
54168;DHT22;68429;50.958;3.592;2023-07-20T06:38:54;18.60;99.90
54168;DHT22;68429;50.958;3.592;2023-07-20T06:41:19;18.30;99.90
54168;DHT22;68429;50.958;3.592;2023-07-20T06:43:46;18.30;99.90
54168;DHT22;68429;50.958;3.592;2023-07-20T06:46:11;18.30;99.90
54168;DHT22;68429;50.958;3.592;2023-07-20T06:48:37;17.90;99.90
54168;DHT22;68429;50.958;3.592;2023-07-20T06:51:02;18.10;99.90
54168;DHT22;68429;50.958;3.592;2023-07-20T06:53:29;18.20;99.90
54168;DHT22;68429;50.958;3.592;2023-07-20T06:55:55;18.10;99.90
54168;DHT22;68429;50.958;3.592;2023-07-20T06:58:24;17.90;99.90
54168;DHT22;68429;50.958;3.592;2023-07-20T07:00:50;17.80;99.90
54168;DHT22;68429;50.958;3.592;2023-07-20T07:03:16;17.90;99.90
54168;DHT22;68429;50.958;3.592;2023-07-20T07:05:42;18.10;99.90
54168;DHT22;68429;50.958;3.592;2023-07-20T07:08:08;18.20;99.90
54168;DHT22;68429;50.958;3.592;2023-07-20T07:10:35;18.50;99.90
54168;DHT22;68429;50.958;3.592;2023-07-20T07:13:02;18.30;99.90
54168;DHT22;68429;50.958;3.592;2023-07-20T07:15:27;17.90;99.90
54168;DHT22;68429;50.958;3.592;2023-07-20T07:17:54;17.80;99.90
54168;DHT22;68429;50.958;3.592;2023-07-20T07:20:19;18.00;99.90
54168;DHT22;68429;50.958;3.592;2023-07-20T07:22:45;18.30;99.90
54168;DHT22;68429;50.958;3.592;2023-07-20T07:25:12;18.70;99.90
54168;DHT22;68429;50.958;3.592;2023-07-20T07:27:37;19.30;99.90
54168;DHT22;68429;50.958;3.592;2023-07-20T07:30:04;19.60;99.90
54168;DHT22;68429;50.958;3.592;2023-07-20T07:32:30;19.90;99.90
54168;DHT22;68429;50.958;3.592;2023-07-20T07:34:56;19.90;99.90
54168;DHT22;68429;50.958;3.592;2023-07-20T07:37:24;19.80;99.90
54168;DHT22;68429;50.958;3.592;2023-07-20T07:39:49;19.90;99.90
54168;DHT22;68429;50.958;3.592;2023-07-20T07:42:15;20.10;99.90
54168;DHT22;68429;50.958;3.592;2023-07-20T07:44:41;19.50;99.90
54168;DHT22;68429;50.958;3.592;2023-07-20T07:47:07;20.00;99.90
54168;DHT22;68429;50.958;3.592;2023-07-20T07:49:32;20.30;99.90
54168;DHT22;68429;50.958;3.592;2023-07-20T07:51:58;20.50;99.90
54168;DHT22;68429;50.958;3.592;2023-07-20T07:54:24;20.50;99.90
54168;DHT22;68429;50.958;3.592;2023-07-20T07:56:50;20.70;99.90
54168;DHT22;68429;50.958;3.592;2023-07-20T07:59:16;20.30;99.90
54168;DHT22;68429;50.958;3.592;2023-07-20T08:01:42;20.70;99.90
54168;DHT22;68429;50.958;3.592;2023-07-20T08:04:08;20.70;99.90
54168;DHT22;68429;50.958;3.592;2023-07-20T08:06:34;20.00;99.90
54168;DHT22;68429;50.958;3.592;2023-07-20T08:08:59;19.80;99.90
54168;DHT22;68429;50.958;3.592;2023-07-20T08:11:25;19.80;99.90
54168;DHT22;68429;50.958;3.592;2023-07-20T08:13:51;19.90;99.90
54168;DHT22;68429;50.958;3.592;2023-07-20T08:16:17;20.50;99.90
54168;DHT22;68429;50.958;3.592;2023-07-20T08:18:43;20.90;99.90
54168;DHT22;68429;50.958;3.592;2023-07-20T08:21:09;21.30;99.90
54168;DHT22;68429;50.958;3.592;2023-07-20T08:23:35;20.90;99.90
54168;DHT22;68429;50.958;3.592;2023-07-20T08:26:00;20.20;99.90
54168;DHT22;68429;50.958;3.592;2023-07-20T08:28:26;20.30;99.90
54168;DHT22;68429;50.958;3.592;2023-07-20T08:30:52;21.00;99.90
54168;DHT22;68429;50.958;3.592;2023-07-20T08:33:18;21.40;99.90
54168;DHT22;68429;50.958;3.592;2023-07-20T08:35:48;21.70;99.90
54168;DHT22;68429;50.958;3.592;2023-07-20T08:38:14;21.60;99.90
54168;DHT22;68429;50.958;3.592;2023-07-20T08:40:45;20.90;99.90
54168;DHT22;68429;50.958;3.592;2023-07-20T08:43:12;20.70;99.90
54168;DHT22;68429;50.958;3.592;2023-07-20T08:45:40;21.20;99.90
54168;DHT22;68429;50.958;3.592;2023-07-20T08:48:06;21.00;99.90
54168;DHT22;68429;50.958;3.592;2023-07-20T08:50:33;20.70;99.90
54168;DHT22;68429;50.958;3.592;2023-07-20T08:53:00;20.70;99.90
54168;DHT22;68429;50.958;3.592;2023-07-20T08:55:27;21.00;99.90
54168;DHT22;68429;50.958;3.592;2023-07-20T08:57:54;21.40;99.90
54168;DHT22;68429;50.958;3.592;2023-07-20T09:00:21;21.70;99.90
54168;DHT22;68429;50.958;3.592;2023-07-20T09:02:50;21.90;99.90
54168;DHT22;68429;50.958;3.592;2023-07-20T09:05:17;22.20;99.90
54168;DHT22;68429;50.958;3.592;2023-07-20T09:07:43;21.80;99.90
54168;DHT22;68429;50.958;3.592;2023-07-20T09:10:09;22.00;99.90
54168;DHT22;68429;50.958;3.592;2023-07-20T09:12:40;22.30;99.90
54168;DHT22;68429;50.958;3.592;2023-07-20T09:15:06;22.10;99.90
54168;DHT22;68429;50.958;3.592;2023-07-20T09:17:32;22.20;99.90
54168;DHT22;68429;50.958;3.592;2023-07-20T09:19:59;22.40;99.90
54168;DHT22;68429;50.958;3.592;2023-07-20T09:22:30;22.60;99.90
54168;DHT22;68429;50.958;3.592;2023-07-20T09:24:57;22.90;99.90
54168;DHT22;68429;50.958;3.592;2023-07-20T09:27:35;23.20;99.90
54168;DHT22;68429;50.958;3.592;2023-07-20T09:30:01;23.40;99.90
54168;DHT22;68429;50.958;3.592;2023-07-20T09:32:27;22.90;99.90
54168;DHT22;68429;50.958;3.592;2023-07-20T09:34:53;22.40;99.90
54168;DHT22;68429;50.958;3.592;2023-07-20T09:37:22;22.70;99.90
54168;DHT22;68429;50.958;3.592;2023-07-20T09:39:52;23.40;99.80
54168;DHT22;68429;50.958;3.592;2023-07-20T09:42:18;23.70;98.70
54168;DHT22;68429;50.958;3.592;2023-07-20T09:44:44;23.40;97.10
54168;DHT22;68429;50.958;3.592;2023-07-20T09:47:10;23.10;97.10
54168;DHT22;68429;50.958;3.592;2023-07-20T09:49:42;23.30;97.50
54168;DHT22;68429;50.958;3.592;2023-07-20T09:52:08;23.90;97.30
54168;DHT22;68429;50.958;3.592;2023-07-20T09:54:38;23.40;97.60
54168;DHT22;68429;50.958;3.592;2023-07-20T09:57:06;23.80;98.20
54168;DHT22;68429;50.958;3.592;2023-07-20T09:59:33;24.20;97.50
54168;DHT22;68429;50.958;3.592;2023-07-20T10:02:01;25.00;97.30
54168;DHT22;68429;50.958;3.592;2023-07-20T10:04:28;25.70;95.80
54168;DHT22;68429;50.958;3.592;2023-07-20T10:06:55;25.80;95.10
54168;DHT22;68429;50.958;3.592;2023-07-20T10:09:22;25.80;95.80
54168;DHT22;68429;50.958;3.592;2023-07-20T10:11:53;25.30;94.90
54168;DHT22;68429;50.958;3.592;2023-07-20T10:14:23;24.30;95.60
54168;DHT22;68429;50.958;3.592;2023-07-20T10:16:57;22.40;99.20
54168;DHT22;68429;50.958;3.592;2023-07-20T10:19:46;21.20;99.90
54168;DHT22;68429;50.958;3.592;2023-07-20T10:22:15;20.70;99.90
54168;DHT22;68429;50.958;3.592;2023-07-20T10:24:45;21.20;99.90
54168;DHT22;68429;50.958;3.592;2023-07-20T10:27:13;22.40;99.80
54168;DHT22;68429;50.958;3.592;2023-07-20T10:29:40;22.70;98.90
54168;DHT22;68429;50.958;3.592;2023-07-20T10:32:07;23.20;99.10
54168;DHT22;68429;50.958;3.592;2023-07-20T10:34:33;23.80;97.80
54168;DHT22;68429;50.958;3.592;2023-07-20T10:36:59;23.90;97.70
54168;DHT22;68429;50.958;3.592;2023-07-20T10:39:26;24.00;97.70
54168;DHT22;68429;50.958;3.592;2023-07-20T10:42:09;22.90;97.70
54168;DHT22;68429;50.958;3.592;2023-07-20T10:44:41;22.00;99.90
54168;DHT22;68429;50.958;3.592;2023-07-20T10:47:12;22.40;99.70
54168;DHT22;68429;50.958;3.592;2023-07-20T10:50:02;22.50;99.20
54168;DHT22;68429;50.958;3.592;2023-07-20T10:52:40;22.80;99.30
54168;DHT22;68429;50.958;3.592;2023-07-20T10:55:19;23.10;98.60
54168;DHT22;68429;50.958;3.592;2023-07-20T10:58:06;23.20;97.90
54168;DHT22;68429;50.958;3.592;2023-07-20T11:00:33;22.40;98.30
54168;DHT22;68429;50.958;3.592;2023-07-20T11:02:58;22.20;99.10
54168;DHT22;68429;50.958;3.592;2023-07-20T11:05:38;22.30;99.20
54168;DHT22;68429;50.958;3.592;2023-07-20T11:08:05;22.50;99.60
54168;DHT22;68429;50.958;3.592;2023-07-20T11:10:32;22.50;99.50
54168;DHT22;68429;50.958;3.592;2023-07-20T11:16:06;22.20;98.90
54168;DHT22;68429;50.958;3.592;2023-07-20T11:18:34;22.30;99.30
54168;DHT22;68429;50.958;3.592;2023-07-20T11:21:07;22.60;98.70
54168;DHT22;68429;50.958;3.592;2023-07-20T11:23:34;22.60;98.40
54168;DHT22;68429;50.958;3.592;2023-07-20T11:26:02;22.50;98.80
54168;DHT22;68429;50.958;3.592;2023-07-20T11:28:30;22.10;99.30
54168;DHT22;68429;50.958;3.592;2023-07-20T11:30:56;22.10;99.60
54168;DHT22;68429;50.958;3.592;2023-07-20T11:33:22;21.90;99.90
54168;DHT22;68429;50.958;3.592;2023-07-20T11:35:49;21.60;99.90
54168;DHT22;68429;50.958;3.592;2023-07-20T11:38:16;21.10;99.90
54168;DHT22;68429;50.958;3.592;2023-07-20T11:40:46;20.90;99.90
54168;DHT22;68429;50.958;3.592;2023-07-20T11:43:12;20.80;99.90
54168;DHT22;68429;50.958;3.592;2023-07-20T11:45:39;20.80;99.90
54168;DHT22;68429;50.958;3.592;2023-07-20T11:48:05;20.50;99.90
54168;DHT22;68429;50.958;3.592;2023-07-20T11:50:31;20.30;99.90
54168;DHT22;68429;50.958;3.592;2023-07-20T11:52:57;20.10;99.90
54168;DHT22;68429;50.958;3.592;2023-07-20T11:55:23;19.70;99.90
54168;DHT22;68429;50.958;3.592;2023-07-20T11:58:05;19.60;99.90
54168;DHT22;68429;50.958;3.592;2023-07-20T12:00:32;19.30;99.90
54168;DHT22;68429;50.958;3.592;2023-07-20T12:02:59;19.30;99.90
54168;DHT22;68429;50.958;3.592;2023-07-20T12:05:24;19.10;99.90
54168;DHT22;68429;50.958;3.592;2023-07-20T12:07:51;19.00;99.90
54168;DHT22;68429;50.958;3.592;2023-07-20T12:10:26;18.80;99.90
54168;DHT22;68429;50.958;3.592;2023-07-20T12:12:52;18.60;99.90
54168;DHT22;68429;50.958;3.592;2023-07-20T12:15:22;18.80;99.90
54168;DHT22;68429;50.958;3.592;2023-07-20T12:17:53;19.30;99.90
54168;DHT22;68429;50.958;3.592;2023-07-20T12:20:29;20.10;99.90
54168;DHT22;68429;50.958;3.592;2023-07-20T12:23:01;19.90;99.90
54168;DHT22;68429;50.958;3.592;2023-07-20T12:25:53;20.20;99.90
54168;DHT22;68429;50.958;3.592;2023-07-20T12:28:21;20.30;99.90
54168;DHT22;68429;50.958;3.592;2023-07-20T12:30:47;19.80;99.90
54168;DHT22;68429;50.958;3.592;2023-07-20T12:33:22;19.80;99.90
54168;DHT22;68429;50.958;3.592;2023-07-20T12:35:51;20.20;99.90
54168;DHT22;68429;50.958;3.592;2023-07-20T12:38:21;21.50;99.90
54168;DHT22;68429;50.958;3.592;2023-07-20T12:40:47;23.30;99.90
54168;DHT22;68429;50.958;3.592;2023-07-20T12:43:13;24.40;99.90
54168;DHT22;68429;50.958;3.592;2023-07-20T12:45:39;25.30;99.50
54168;DHT22;68429;50.958;3.592;2023-07-20T12:48:06;25.50;99.40
54168;DHT22;68429;50.958;3.592;2023-07-20T12:50:31;25.30;97.60
54168;DHT22;68429;50.958;3.592;2023-07-20T12:52:57;26.70;97.10
54168;DHT22;68429;50.958;3.592;2023-07-20T12:55:23;26.90;96.10
54168;DHT22;68429;50.958;3.592;2023-07-20T12:57:49;28.10;93.90
54168;DHT22;68429;50.958;3.592;2023-07-20T13:00:15;29.10;93.40
54168;DHT22;68429;50.958;3.592;2023-07-20T13:02:41;28.40;93.60
54168;DHT22;68429;50.958;3.592;2023-07-20T13:05:08;27.90;93.90
54168;DHT22;68429;50.958;3.592;2023-07-20T13:07:36;27.80;94.00
54168;DHT22;68429;50.958;3.592;2023-07-20T13:10:03;26.60;93.50
54168;DHT22;68429;50.958;3.592;2023-07-20T13:12:31;26.40;94.20
54168;DHT22;68429;50.958;3.592;2023-07-20T13:14:58;25.70;94.40
54168;DHT22;68429;50.958;3.592;2023-07-20T13:17:26;24.10;96.40
54168;DHT22;68429;50.958;3.592;2023-07-20T13:19:52;22.90;97.90
54168;DHT22;68429;50.958;3.592;2023-07-20T13:22:18;23.30;97.80
54168;DHT22;68429;50.958;3.592;2023-07-20T13:24:47;23.10;98.10
54168;DHT22;68429;50.958;3.592;2023-07-20T13:27:19;23.80;97.00
54168;DHT22;68429;50.958;3.592;2023-07-20T13:29:45;23.40;97.70
54168;DHT22;68429;50.958;3.592;2023-07-20T13:32:13;23.50;97.80
54168;DHT22;68429;50.958;3.592;2023-07-20T13:34:40;23.00;98.00
54168;DHT22;68429;50.958;3.592;2023-07-20T13:37:06;22.90;97.90
54168;DHT22;68429;50.958;3.592;2023-07-20T13:39:31;22.70;97.70
54168;DHT22;68429;50.958;3.592;2023-07-20T13:41:57;22.50;97.60
54168;DHT22;68429;50.958;3.592;2023-07-20T13:44:23;22.80;99.20
54168;DHT22;68429;50.958;3.592;2023-07-20T13:46:49;22.90;99.40
54168;DHT22;68429;50.958;3.592;2023-07-20T13:49:15;22.80;99.40
54168;DHT22;68429;50.958;3.592;2023-07-20T13:51:42;22.60;99.90
54168;DHT22;68429;50.958;3.592;2023-07-20T13:54:08;22.30;99.90
54168;DHT22;68429;50.958;3.592;2023-07-20T13:56:33;21.90;99.90
54168;DHT22;68429;50.958;3.592;2023-07-20T13:58:59;21.50;99.90
54168;DHT22;68429;50.958;3.592;2023-07-20T14:01:25;21.20;99.90
54168;DHT22;68429;50.958;3.592;2023-07-20T14:03:53;20.90;99.90
54168;DHT22;68429;50.958;3.592;2023-07-20T14:06:19;20.40;99.90
54168;DHT22;68429;50.958;3.592;2023-07-20T14:08:45;19.90;99.90
54168;DHT22;68429;50.958;3.592;2023-07-20T14:11:15;19.00;99.90
54168;DHT22;68429;50.958;3.592;2023-07-20T14:13:41;18.50;99.90
54168;DHT22;68429;50.958;3.592;2023-07-20T14:16:07;18.20;99.90
54168;DHT22;68429;50.958;3.592;2023-07-20T14:18:33;18.20;99.90
54168;DHT22;68429;50.958;3.592;2023-07-20T14:20:59;18.30;99.90
54168;DHT22;68429;50.958;3.592;2023-07-20T14:23:25;18.40;99.90
54168;DHT22;68429;50.958;3.592;2023-07-20T14:25:51;18.60;99.90
54168;DHT22;68429;50.958;3.592;2023-07-20T14:28:16;18.60;99.90
54168;DHT22;68429;50.958;3.592;2023-07-20T14:30:42;18.70;99.90
54168;DHT22;68429;50.958;3.592;2023-07-20T14:33:08;18.50;99.90
54168;DHT22;68429;50.958;3.592;2023-07-20T14:35:34;18.40;99.90
54168;DHT22;68429;50.958;3.592;2023-07-20T14:38:00;18.20;99.90
54168;DHT22;68429;50.958;3.592;2023-07-20T14:40:26;18.00;99.90
54168;DHT22;68429;50.958;3.592;2023-07-20T14:42:52;17.70;99.90
54168;DHT22;68429;50.958;3.592;2023-07-20T14:45:18;17.60;99.90
54168;DHT22;68429;50.958;3.592;2023-07-20T14:47:44;17.60;99.90
54168;DHT22;68429;50.958;3.592;2023-07-20T14:50:11;17.60;99.90
54168;DHT22;68429;50.958;3.592;2023-07-20T14:52:36;17.70;99.90
54168;DHT22;68429;50.958;3.592;2023-07-20T14:55:02;17.40;99.90
54168;DHT22;68429;50.958;3.592;2023-07-20T14:57:28;17.00;99.90
54168;DHT22;68429;50.958;3.592;2023-07-20T14:59:54;16.90;99.90
54168;DHT22;68429;50.958;3.592;2023-07-20T15:02:19;16.60;99.90
54168;DHT22;68429;50.958;3.592;2023-07-20T15:04:46;16.60;99.90
54168;DHT22;68429;50.958;3.592;2023-07-20T15:07:12;16.50;99.90
54168;DHT22;68429;50.958;3.592;2023-07-20T15:09:38;16.40;99.90
54168;DHT22;68429;50.958;3.592;2023-07-20T15:12:05;16.40;99.90
54168;DHT22;68429;50.958;3.592;2023-07-20T15:14:31;16.30;99.90
54168;DHT22;68429;50.958;3.592;2023-07-20T15:16:56;16.30;99.90
54168;DHT22;68429;50.958;3.592;2023-07-20T15:19:22;16.20;99.90
54168;DHT22;68429;50.958;3.592;2023-07-20T15:21:48;16.40;99.90
54168;DHT22;68429;50.958;3.592;2023-07-20T15:24:14;16.40;99.90
54168;DHT22;68429;50.958;3.592;2023-07-20T15:26:41;16.80;99.90
54168;DHT22;68429;50.958;3.592;2023-07-20T15:29:07;17.50;99.90
54168;DHT22;68429;50.958;3.592;2023-07-20T15:31:32;18.50;99.90
54168;DHT22;68429;50.958;3.592;2023-07-20T15:33:58;19.30;99.90
54168;DHT22;68429;50.958;3.592;2023-07-20T15:36:24;20.10;99.90
54168;DHT22;68429;50.958;3.592;2023-07-20T15:38:49;20.70;99.90